createdAt,value
2019-01-26T00:02:02.590Z,52.25
2019-01-26T00:04:35.961Z,58.60
2019-01-26T00:07:07.709Z,52.20
2019-01-26T00:09:43.245Z,55.73
2019-01-26T00:12:15.823Z,60.50
2019-01-26T00:14:51.275Z,53.37
2019-01-26T00:17:23.749Z,53.93
2019-01-26T00:19:58.268Z,61.57
2019-01-26T00:22:31.586Z,56.80
2019-01-26T00:25:06.325Z,67.20
2019-01-26T00:27:39.508Z,57.58
2019-01-26T00:30:12.501Z,69.83
2019-01-26T00:32:44.838Z,68.03
2019-01-26T00:35:19.163Z,62.13
2019-01-26T00:37:51.934Z,59.57
2019-01-26T00:40:25.985Z,55.20
2019-01-26T00:42:57.933Z,59.13
2019-01-26T00:45:30.935Z,54.60
2019-01-26T00:48:02.299Z,50.97
2019-01-26T00:50:33.632Z,59.37
2019-01-26T00:53:06.830Z,55.10
2019-01-26T00:55:40.926Z,58.53
2019-01-26T00:58:12.468Z,54.13
2019-01-26T01:00:44.816Z,61.75
2019-01-26T01:03:18.848Z,59.13
2019-01-26T01:05:50.932Z,63.23
2019-01-26T01:08:23.918Z,52.13
2019-01-26T01:10:55.668Z,62.30
2019-01-26T01:13:27.019Z,61.63
2019-01-26T01:16:00.846Z,59.88
2019-01-26T01:18:32.489Z,62.13
2019-01-26T01:21:05.022Z,54.37
2019-01-26T01:23:36.433Z,60.40
2019-01-26T01:26:10.202Z,56.73
2019-01-26T01:28:44.195Z,56.73
2019-01-26T01:31:17.192Z,64.00
2019-01-26T01:33:48.965Z,61.33
2019-01-26T01:36:23.077Z,61.27
2019-01-26T01:38:58.625Z,58.80
2019-01-26T01:41:30.271Z,55.73
2019-01-26T01:44:02.068Z,67.47
2019-01-26T01:46:35.229Z,60.97
2019-01-26T01:49:08.252Z,62.13
2019-01-26T01:51:40.363Z,62.93
2019-01-26T01:54:11.693Z,57.77
2019-01-26T01:56:45.137Z,54.20
2019-01-26T01:59:19.354Z,59.70
2019-01-26T02:01:51.289Z,54.00
2019-01-26T02:04:24.098Z,63.58
2019-01-26T02:06:58.209Z,57.67
2019-01-26T02:09:32.044Z,58.23
2019-01-26T02:12:06.253Z,51.10
2019-01-26T02:14:39.339Z,58.13
2019-01-26T02:17:13.642Z,58.30
2019-01-26T02:19:47.267Z,62.50
2019-01-26T02:22:18.577Z,52.13
2019-01-26T02:24:52.200Z,49.57
2019-01-26T02:27:23.459Z,58.92
2019-01-26T02:29:57.254Z,53.60
2019-01-26T02:32:31.541Z,47.13
2019-01-26T02:35:06.011Z,47.05
2019-01-26T02:37:39.651Z,50.57
2019-01-26T02:40:13.823Z,43.02
2019-01-26T02:42:46.354Z,42.40
2019-01-26T02:45:21.865Z,48.17
2019-01-26T02:47:54.336Z,46.23
2019-01-26T02:50:29.908Z,37.13
2019-01-26T02:53:02.554Z,43.33
2019-01-26T02:55:33.798Z,48.60
2019-01-26T02:58:07.571Z,42.40
2019-01-26T03:00:41.489Z,43.28
2019-01-26T03:03:12.755Z,40.95
2019-01-26T03:05:46.441Z,42.37
2019-01-26T03:08:18.423Z,41.50
2019-01-26T03:10:51.563Z,40.57
2019-01-26T03:13:24.697Z,42.67
2019-01-26T03:15:56.307Z,44.77
2019-01-26T03:18:27.586Z,41.50
2019-01-26T03:21:01.597Z,36.87
2019-01-26T03:23:35.780Z,32.07
2019-01-26T03:26:08.672Z,40.13
2019-01-26T03:28:43.401Z,39.10
2019-01-26T03:31:15.592Z,39.17
2019-01-26T03:33:47.592Z,39.73
2019-01-26T03:36:18.858Z,35.30
2019-01-26T03:38:52.687Z,31.63
2019-01-26T03:41:26.619Z,36.87
2019-01-26T03:44:00.640Z,36.93
2019-01-26T03:46:34.646Z,33.80
2019-01-26T03:49:10.270Z,35.43
2019-01-26T03:51:42.674Z,38.80
2019-01-26T03:54:15.771Z,37.50
2019-01-26T03:56:49.866Z,36.80
2019-01-26T03:59:21.663Z,35.40
2019-01-26T04:01:54.878Z,39.83
2019-01-26T04:04:28.809Z,43.42
2019-01-26T04:07:00.172Z,31.33
2019-01-26T04:09:33.701Z,37.83
2019-01-26T04:12:07.802Z,44.80
2019-01-26T04:14:41.729Z,38.90
2019-01-26T04:17:21.795Z,38.60
2019-01-26T04:19:49.733Z,39.03
2019-01-26T04:22:20.982Z,40.03
2019-01-26T04:24:56.894Z,42.73
2019-01-26T04:27:28.792Z,33.55
2019-01-26T04:30:01.885Z,46.50
2019-01-26T04:32:33.918Z,34.90
2019-01-26T04:35:07.261Z,43.70
2019-01-26T04:37:40.930Z,37.50
2019-01-26T04:40:13.935Z,32.00
2019-01-26T04:42:45.711Z,37.83
2019-01-26T04:45:21.961Z,36.77
2019-01-26T04:47:53.742Z,37.60
2019-01-26T04:50:28.027Z,32.80
2019-01-26T04:53:01.803Z,28.33
2019-01-26T04:55:33.153Z,29.57
2019-01-26T04:58:06.887Z,25.40
2019-01-26T05:00:41.005Z,22.67
2019-01-26T05:03:12.767Z,22.30
2019-01-26T05:05:46.085Z,28.27
2019-01-26T05:08:19.142Z,25.83
2019-01-26T05:10:50.814Z,22.80
2019-01-26T05:13:26.444Z,25.00
2019-01-26T05:15:59.053Z,29.73
2019-01-26T05:18:32.105Z,25.40
2019-01-26T05:21:04.169Z,31.60
2019-01-26T05:23:39.652Z,28.23
2019-01-26T05:26:12.196Z,24.73
2019-01-26T05:28:44.433Z,41.17
2019-01-26T05:31:17.614Z,30.52
2019-01-26T05:33:48.879Z,21.20
2019-01-26T05:36:22.092Z,31.07
2019-01-26T05:38:56.216Z,33.57
2019-01-26T05:41:28.071Z,25.80
2019-01-26T05:44:01.109Z,29.43
2019-01-26T05:46:32.423Z,29.63
2019-01-26T05:49:04.033Z,31.13
2019-01-26T05:51:37.451Z,26.10
2019-01-26T05:54:11.341Z,28.87
2019-01-26T05:56:42.780Z,25.43
2019-01-26T05:59:14.178Z,25.40
2019-01-26T06:01:47.741Z,28.47
2019-01-26T06:04:21.312Z,32.07
2019-01-26T06:06:55.363Z,26.03
2019-01-26T06:09:29.287Z,31.42
2019-01-26T06:12:03.296Z,24.70
2019-01-26T06:14:35.032Z,29.03
2019-01-26T06:17:08.469Z,30.60
2019-01-26T06:19:42.476Z,27.10
2019-01-26T06:22:15.261Z,30.83
2019-01-26T06:24:47.210Z,28.20
2019-01-26T06:27:21.244Z,28.77
2019-01-26T06:29:52.566Z,27.00
2019-01-26T06:32:24.486Z,33.53
2019-01-26T06:34:57.242Z,24.03
2019-01-26T06:37:28.558Z,28.73
2019-01-26T06:40:02.456Z,30.90
2019-01-26T06:42:35.454Z,23.47
2019-01-26T06:45:10.429Z,26.00
2019-01-26T06:47:43.432Z,28.40
2019-01-26T06:50:19.638Z,24.72
2019-01-26T06:52:51.519Z,29.43
2019-01-26T06:55:25.388Z,28.13
2019-01-26T06:57:59.648Z,28.92
2019-01-26T07:00:32.761Z,30.30
2019-01-26T07:03:04.373Z,30.17
2019-01-26T07:05:52.056Z,28.90
2019-01-26T07:08:24.769Z,34.53
2019-01-26T07:10:56.300Z,30.20
2019-01-26T07:13:29.432Z,34.87
2019-01-26T07:16:03.587Z,31.20
2019-01-26T07:18:38.426Z,36.10
2019-01-26T07:21:11.466Z,35.23
2019-01-26T07:23:45.466Z,38.80
2019-01-26T07:26:16.725Z,36.55
2019-01-26T07:28:48.042Z,38.97
2019-01-26T07:31:22.787Z,38.58
2019-01-26T07:33:55.702Z,33.67
2019-01-26T07:36:31.369Z,38.30
2019-01-26T07:39:05.092Z,44.60
2019-01-26T07:41:36.651Z,38.80
2019-01-26T07:44:08.427Z,37.93
2019-01-26T07:46:39.678Z,38.20
2019-01-26T07:49:12.374Z,36.47
2019-01-26T07:51:44.644Z,40.47
2019-01-26T07:54:20.351Z,36.43
2019-01-26T07:56:51.618Z,49.30
2019-01-26T07:59:24.653Z,40.67
2019-01-26T08:01:55.931Z,39.33
2019-01-26T08:04:28.840Z,41.60
2019-01-26T08:07:01.851Z,42.70
2019-01-26T08:09:33.192Z,41.10
2019-01-26T08:12:05.067Z,40.60
2019-01-26T08:14:37.861Z,36.27
2019-01-26T08:17:12.466Z,39.40
2019-01-26T08:19:46.030Z,41.27
2019-01-26T08:22:18.867Z,34.20
2019-01-26T08:24:50.875Z,38.07
2019-01-26T08:27:24.775Z,35.53
2019-01-26T08:29:56.152Z,29.00
2019-01-26T08:32:29.814Z,31.80
2019-01-26T08:35:03.351Z,38.00
2019-01-26T08:37:37.019Z,33.80
2019-01-26T08:40:12.496Z,34.45
2019-01-26T08:42:44.025Z,35.17
2019-01-26T08:45:16.357Z,31.30
2019-01-26T08:47:47.853Z,31.20
2019-01-26T08:50:25.610Z,35.97
2019-01-26T08:52:57.880Z,38.57
2019-01-26T08:55:31.947Z,36.90
2019-01-26T08:58:06.033Z,33.13
2019-01-26T09:00:37.368Z,32.73
2019-01-26T09:03:22.347Z,31.52
2019-01-26T09:06:06.201Z,33.42
2019-01-26T09:08:40.006Z,34.18
2019-01-26T09:11:11.724Z,40.00
2019-01-26T09:13:46.728Z,30.25
2019-01-26T09:16:19.351Z,34.53
2019-01-26T09:18:53.259Z,31.60
2019-01-26T09:21:27.088Z,35.43
2019-01-26T09:24:01.245Z,35.23
2019-01-26T09:26:37.573Z,37.73
2019-01-26T09:29:10.704Z,35.40
2019-01-26T09:31:43.315Z,39.60
2019-01-26T09:34:16.188Z,33.18
2019-01-26T09:36:48.301Z,33.00
2019-01-26T09:39:22.386Z,42.58
2019-01-26T09:41:53.740Z,40.65
2019-01-26T09:44:27.550Z,39.63
2019-01-26T09:47:02.462Z,47.43
2019-01-26T09:49:36.640Z,28.83
2019-01-26T09:52:09.545Z,31.02
2019-01-26T09:54:45.976Z,30.67
2019-01-26T09:57:23.936Z,28.13
2019-01-26T09:59:57.615Z,31.23
2019-01-26T10:02:34.655Z,36.98
2019-01-26T10:05:13.187Z,26.60
2019-01-26T10:07:56.802Z,31.57
2019-01-26T10:10:35.387Z,26.73
2019-01-26T10:13:11.282Z,26.20
2019-01-26T10:15:52.910Z,24.63
2019-01-26T10:18:28.132Z,28.23
2019-01-26T10:21:04.771Z,29.33
2019-01-26T10:23:45.685Z,22.90
2019-01-26T10:26:22.611Z,23.63
2019-01-26T10:29:01.183Z,25.40
2019-01-26T10:31:35.865Z,23.35
2019-01-26T10:34:09.129Z,21.13
2019-01-26T10:36:51.387Z,21.03
2019-01-26T10:39:29.093Z,20.30
2019-01-26T10:42:33.873Z,24.70
2019-01-26T10:45:08.690Z,21.50
2019-01-26T10:47:43.567Z,25.10
2019-01-26T10:50:16.510Z,24.33
2019-01-26T10:52:48.555Z,20.50
2019-01-26T10:55:20.931Z,22.47
2019-01-26T10:57:57.455Z,22.97
2019-01-26T11:00:29.101Z,21.62
2019-01-26T11:03:05.996Z,21.27
2019-01-26T11:05:42.241Z,22.57
2019-01-26T11:08:16.294Z,23.57
2019-01-26T11:10:48.008Z,20.80
2019-01-26T11:13:27.141Z,20.13
2019-01-26T11:15:58.899Z,20.80
2019-01-26T11:18:43.203Z,18.37
2019-01-26T11:21:23.470Z,17.10
2019-01-26T11:24:14.842Z,19.23
2019-01-26T11:27:05.355Z,19.37
2019-01-26T11:29:45.810Z,16.17
2019-01-26T11:32:33.702Z,19.82
2019-01-26T11:35:29.965Z,18.53
2019-01-26T11:38:15.165Z,22.93
2019-01-26T11:41:12.868Z,18.93
2019-01-26T11:44:32.706Z,22.15
2019-01-26T11:48:05.866Z,23.10
2019-01-26T11:51:29.695Z,19.57
2019-01-26T11:58:45.944Z,19.12
2019-01-26T12:02:05.194Z,21.73
2019-01-26T12:05:23.226Z,19.43
2019-01-26T12:08:59.988Z,20.63
2019-01-26T12:12:24.155Z,22.93
2019-01-26T12:15:37.562Z,23.20
2019-01-26T12:19:29.089Z,19.90
2019-01-26T12:22:35.225Z,22.07
2019-01-26T12:25:25.312Z,23.10
2019-01-26T12:28:12.883Z,26.40
2019-01-26T12:30:46.626Z,24.33
2019-01-26T12:33:22.516Z,20.10
2019-01-26T12:35:55.083Z,21.90
2019-01-26T12:38:30.924Z,24.33
2019-01-26T12:41:03.255Z,22.40
2019-01-26T12:43:37.348Z,18.67
2019-01-26T12:46:11.140Z,20.60
2019-01-26T12:48:52.559Z,24.40
2019-01-26T12:51:26.920Z,25.70
2019-01-26T12:53:59.311Z,20.63
2019-01-26T12:56:33.472Z,24.47
2019-01-26T12:59:07.251Z,22.23
2019-01-26T13:01:41.310Z,26.15
2019-01-26T13:04:12.987Z,21.85
2019-01-26T13:06:46.278Z,21.83
2019-01-26T13:09:19.599Z,17.43
2019-01-26T13:11:53.898Z,18.10
2019-01-26T13:14:28.253Z,18.60
2019-01-26T13:17:02.201Z,22.20
2019-01-26T13:19:37.010Z,22.80
2019-01-26T13:22:11.201Z,22.53
2019-01-26T13:24:45.624Z,22.13
2019-01-26T13:27:19.761Z,21.20
2019-01-26T13:29:54.098Z,22.60
2019-01-26T13:32:25.525Z,22.63
2019-01-26T13:34:59.598Z,18.77
2019-01-26T13:37:33.883Z,18.07
2019-01-26T13:40:17.105Z,19.53
2019-01-26T13:42:56.964Z,19.53
2019-01-26T13:45:28.880Z,21.68
2019-01-26T13:48:05.142Z,16.13
2019-01-26T13:50:42.111Z,22.37
2019-01-26T13:53:14.740Z,19.33
2019-01-26T13:55:47.263Z,20.40
2019-01-26T13:58:21.342Z,17.40
2019-01-26T14:00:56.459Z,22.05
2019-01-26T14:03:28.746Z,20.80
2019-01-26T14:06:02.425Z,18.67
2019-01-26T14:08:33.939Z,17.93
2019-01-26T14:11:07.592Z,16.70
2019-01-26T14:13:41.526Z,24.90
2019-01-26T14:16:13.044Z,16.30
2019-01-26T14:18:46.494Z,20.02
2019-01-26T14:21:19.829Z,20.30
2019-01-26T14:23:51.578Z,17.60
2019-01-26T14:26:25.464Z,18.50
2019-01-26T14:28:56.817Z,20.77
2019-01-26T14:31:30.441Z,17.43
2019-01-26T14:34:04.558Z,15.20
2019-01-26T14:36:38.429Z,14.93
2019-01-26T14:39:14.238Z,16.80
2019-01-26T14:41:48.237Z,19.60
2019-01-26T14:44:20.728Z,17.67
2019-01-26T14:46:54.528Z,17.87
2019-01-26T14:49:30.106Z,17.15
2019-01-26T14:52:02.579Z,18.40
2019-01-26T14:54:36.540Z,14.67
2019-01-26T14:57:08.145Z,17.00
2019-01-26T14:59:41.720Z,17.67
2019-01-26T15:02:14.633Z,19.05
2019-01-26T15:04:48.304Z,18.20
2019-01-26T15:07:19.734Z,15.47
2019-01-26T15:09:52.988Z,19.03
2019-01-26T15:12:25.861Z,15.83
2019-01-26T15:14:59.376Z,16.00
2019-01-26T15:17:35.168Z,20.10
2019-01-26T15:20:10.893Z,18.90
2019-01-26T15:22:43.852Z,24.40
2019-01-26T15:25:16.766Z,20.80
2019-01-26T15:27:48.719Z,19.45
2019-01-26T15:30:24.538Z,21.80
2019-01-26T15:32:57.706Z,15.47
2019-01-26T15:35:30.823Z,20.90
2019-01-26T15:38:08.198Z,17.50
2019-01-26T15:40:45.790Z,19.10
2019-01-26T15:43:19.843Z,17.20
2019-01-26T15:45:57.866Z,16.32
2019-01-26T15:48:30.349Z,22.53
2019-01-26T15:51:03.772Z,31.30
2019-01-26T15:53:37.765Z,22.90
2019-01-26T15:56:10.760Z,51.03
2019-01-26T15:58:42.513Z,247.30
2019-01-26T16:01:16.442Z,37.85
2019-01-26T16:03:47.820Z,23.13
2019-01-26T16:06:20.613Z,19.77
2019-01-26T16:08:58.038Z,36.87
2019-01-26T16:11:33.530Z,29.57
2019-01-26T16:14:07.159Z,28.93
2019-01-26T16:16:40.979Z,24.77
2019-01-26T16:19:13.032Z,25.40
2019-01-26T16:21:45.818Z,24.27
2019-01-26T16:24:19.123Z,25.60
2019-01-26T16:27:00.951Z,30.33
2019-01-26T16:29:34.153Z,23.10
2019-01-26T16:32:09.475Z,27.87
2019-01-26T16:34:45.349Z,28.30
2019-01-26T16:37:19.090Z,28.60
2019-01-26T16:39:57.596Z,32.23
2019-01-26T16:42:32.190Z,26.63
2019-01-26T16:45:04.318Z,29.97
2019-01-26T16:47:40.618Z,25.37
2019-01-26T16:50:18.039Z,28.63
2019-01-26T16:52:51.579Z,40.53
2019-01-26T16:55:23.440Z,87.08
2019-01-26T16:57:56.220Z,102.02
2019-01-26T17:00:51.926Z,34.70
2019-01-26T17:03:25.327Z,51.33
2019-01-26T17:05:56.990Z,36.50
2019-01-26T17:08:30.157Z,40.13
2019-01-26T17:11:06.263Z,37.33
2019-01-26T17:13:39.166Z,35.97
2019-01-26T17:16:11.234Z,43.87
2019-01-26T17:18:46.262Z,39.87
2019-01-26T17:21:17.459Z,38.33
2019-01-26T17:23:55.165Z,43.40
2019-01-26T17:26:30.218Z,44.03
2019-01-26T17:29:03.344Z,39.53
2019-01-26T17:31:36.571Z,37.93
2019-01-26T17:34:10.928Z,42.50
2019-01-26T17:36:44.384Z,37.30
2019-01-26T17:39:16.369Z,44.77
2019-01-26T17:41:49.458Z,45.23
2019-01-26T17:44:22.668Z,44.40
2019-01-26T17:46:54.649Z,42.93
2019-01-26T17:49:28.613Z,44.18
2019-01-26T17:52:02.552Z,40.83
2019-01-26T17:54:36.561Z,47.13
2019-01-26T17:57:10.451Z,43.53
2019-01-26T17:59:42.537Z,48.33
2019-01-26T18:02:14.087Z,49.00
2019-01-26T18:04:46.576Z,46.80
2019-01-26T18:07:19.612Z,42.93
2019-01-26T18:09:51.386Z,43.43
2019-01-26T18:12:22.777Z,46.07
2019-01-26T18:14:56.624Z,42.60
2019-01-26T18:17:30.597Z,44.40
2019-01-26T18:20:05.380Z,45.10
2019-01-26T18:22:38.567Z,42.43
2019-01-26T18:25:13.238Z,41.43
2019-01-26T18:27:46.603Z,36.10
2019-01-26T18:30:21.126Z,39.50
2019-01-26T18:32:54.628Z,52.47
2019-01-26T18:35:29.612Z,58.80
2019-01-26T18:38:02.546Z,47.80
2019-01-26T18:40:36.618Z,41.63
2019-01-26T18:43:35.999Z,46.13
2019-01-26T18:46:08.571Z,40.97
2019-01-26T18:48:43.100Z,43.33
2019-01-26T18:51:17.581Z,40.57
2019-01-26T18:53:53.287Z,44.17
2019-01-26T18:56:29.008Z,36.03
2019-01-26T18:59:01.971Z,31.97
2019-01-26T19:01:34.664Z,33.73
2019-01-26T19:04:16.163Z,33.30
2019-01-26T19:06:50.421Z,32.57
2019-01-26T19:09:22.715Z,29.02
2019-01-26T19:12:01.415Z,30.37
2019-01-26T19:14:33.946Z,44.43
2019-01-26T19:17:11.772Z,84.40
2019-01-26T19:19:51.754Z,29.53
2019-01-26T19:22:30.082Z,29.70
2019-01-26T19:25:02.912Z,36.53
2019-01-26T19:27:40.946Z,27.57
2019-01-26T19:30:21.138Z,28.50
2019-01-26T19:32:54.313Z,40.90
2019-01-26T19:35:29.768Z,30.20
2019-01-26T19:38:07.527Z,36.53
2019-01-26T19:40:40.642Z,40.77
2019-01-26T19:43:15.264Z,33.47
2019-01-26T19:45:51.612Z,31.27
2019-01-26T19:48:27.162Z,31.10
2019-01-26T19:50:59.018Z,34.17
2019-01-26T19:53:36.519Z,49.25
2019-01-26T19:56:12.463Z,50.13
2019-01-26T19:58:46.162Z,44.03
2019-01-26T20:01:18.186Z,36.63
2019-01-26T20:03:54.354Z,41.47
2019-01-26T20:06:25.941Z,42.23
2019-01-26T20:08:59.922Z,49.10
2019-01-26T20:11:34.288Z,35.93
2019-01-26T20:14:08.158Z,41.90
2019-01-26T20:16:42.168Z,31.00
2019-01-26T20:19:13.626Z,30.23
2019-01-26T20:21:46.293Z,25.90
2019-01-26T20:24:20.040Z,28.10
2019-01-26T20:26:54.603Z,41.33
2019-01-26T20:29:26.564Z,26.55
2019-01-26T20:31:59.057Z,23.00
2019-01-26T20:34:31.000Z,21.53
2019-01-26T20:37:04.247Z,23.17
2019-01-26T20:39:38.189Z,23.23
2019-01-26T20:42:12.255Z,27.00
2019-01-26T20:44:48.033Z,21.73
2019-01-26T20:47:20.113Z,36.83
2019-01-26T20:49:54.162Z,21.00
2019-01-26T20:52:29.708Z,25.87
2019-01-26T20:55:01.160Z,23.93
2019-01-26T20:57:33.274Z,27.15
2019-01-26T21:00:21.332Z,22.00
2019-01-26T21:02:55.237Z,20.73
2019-01-26T21:05:27.140Z,16.82
2019-01-26T21:08:00.984Z,16.87
2019-01-26T21:10:48.864Z,21.67
2019-01-26T21:13:22.723Z,18.00
2019-01-26T21:15:56.270Z,18.50
2019-01-26T21:18:43.801Z,19.40
2019-01-26T21:21:21.058Z,21.30
2019-01-26T21:23:54.606Z,21.80
2019-01-26T21:26:43.762Z,19.03
2019-01-26T21:29:22.295Z,16.60
2019-01-26T21:31:54.476Z,22.23
2019-01-26T21:34:31.223Z,15.97
2019-01-26T21:37:05.279Z,20.07
2019-01-26T21:39:40.880Z,18.67
2019-01-26T21:42:13.460Z,24.70
2019-01-26T21:44:47.325Z,21.17
2019-01-26T21:47:19.556Z,22.15
2019-01-26T21:49:52.390Z,21.57
2019-01-26T21:52:25.529Z,18.33
2019-01-26T21:54:57.426Z,18.47
2019-01-26T21:57:29.371Z,17.05
2019-01-26T22:00:02.518Z,17.50
2019-01-26T22:02:33.764Z,16.00
2019-01-26T22:05:08.638Z,19.25
2019-01-26T22:07:41.634Z,23.73
2019-01-26T22:10:15.706Z,17.00
2019-01-26T22:12:49.641Z,19.57
2019-01-26T22:15:24.218Z,20.97
2019-01-26T22:17:58.147Z,17.70
2019-01-26T22:20:31.731Z,17.40
2019-01-26T22:23:05.579Z,23.30
2019-01-26T22:25:39.668Z,17.43
2019-01-26T22:28:15.069Z,24.13
2019-01-26T22:30:47.632Z,17.27
2019-01-26T22:33:22.281Z,20.48
2019-01-26T22:35:55.600Z,20.90
2019-01-26T22:38:27.701Z,21.57
2019-01-26T22:41:01.178Z,29.80
2019-01-26T22:43:35.289Z,23.30
2019-01-26T22:46:07.950Z,23.33
2019-01-26T22:48:41.669Z,26.50
2019-01-26T22:51:13.442Z,23.77
2019-01-26T22:53:46.639Z,31.17
2019-01-26T22:56:19.790Z,26.47
2019-01-26T22:58:51.704Z,32.10
2019-01-26T23:01:33.292Z,26.00
2019-01-26T23:04:30.761Z,25.73
2019-01-26T23:07:44.247Z,27.20
2019-01-26T23:10:55.901Z,30.43
2019-01-26T23:13:44.790Z,26.85
2019-01-26T23:16:45.196Z,24.60
2019-01-26T23:19:33.419Z,26.43
2019-01-26T23:23:01.920Z,31.90
2019-01-26T23:26:22.187Z,26.67
2019-01-26T23:29:14.695Z,28.00
2019-01-26T23:31:46.995Z,25.60
2019-01-26T23:34:20.936Z,29.10
2019-01-26T23:36:52.186Z,28.20
2019-01-26T23:39:23.443Z,29.13
2019-01-26T23:41:57.591Z,24.67
2019-01-26T23:44:30.947Z,23.83
2019-01-26T23:47:04.993Z,27.70
2019-01-26T23:49:38.949Z,24.47
2019-01-26T23:52:12.985Z,23.60
2019-01-26T23:54:46.777Z,20.70
2019-01-26T23:57:18.042Z,20.00
2019-01-26T23:59:51.935Z,26.07
